Flight Track Log - Related Links

Times and Time Zones

All times are in EDT time to prevent confusion due to time zone crossing. See the AWE1913 flight status page for this flight to view local times or setup timezone preferences in your user account.

Time Position Orientation Groundspeed Altitude Reporting Facility
EDT Latitude Longitude Course Direction KTS MPH feet Rate Location/Type
Sun 11:11:57 AM 39.8597 -75.2781 230° Southwest 127 146 1,100  Level FAA TRACON SMA TRACON (SMA)
Sun 11:12:18 AM 39.8514 -75.2911 230° Southwest 147 169 1,700 1,800 Climbing FAA TRACON SMA TRACON (SMA)
Sun 11:12:37 AM 39.8419 -75.3025 223° Southwest 168 193 2,300 2,154 Climbing FAA TRACON SMA TRACON (SMA)
Sun 11:12:57 AM 39.8264 -75.3197 220° Southwest 180 207 3,100 2,550 Climbing FAA TRACON SMA TRACON (SMA)
Sun 11:13:17 AM 39.8139 -75.3333 220° Southwest 189 217 4,000 2,400 Climbing FAA TRACON SMA TRACON (SMA)
Sun 11:13:37 AM 39.7997 -75.3481 219° Southwest 204 235 4,700 2,700 Climbing FAA TRACON SMA TRACON (SMA)
Sun 11:13:57 AM 39.7764 -75.3569 196° South 244 281 5,800 2,700 Climbing FAA TRACON SMA TRACON (SMA)
Sun 11:14:17 AM 39.7547 -75.3569 180° South 248 285 6,500 2,250 Climbing FAA TRACON SMA TRACON (SMA)
Sun 11:14:37 AM 39.7317 -75.3572 181° South 256 295 7,300 3,150 Climbing FAA TRACON SMA TRACON (SMA)
Sun 11:14:57 AM 39.7028 -75.3589 183° South 271 312 8,600 3,750 Climbing FAA TRACON SMA TRACON (SMA)
Sun 11:15:17 AM 39.6797 -75.3597 182° South 270 311 9,800 3,150 Climbing FAA TRACON SMA TRACON (SMA)
Sun 11:15:37 AM 39.6575 -75.3608 182° South 268 308 10,700 2,250 Climbing FAA TRACON SMA TRACON (SMA)
Sun 11:15:57 AM 39.6272 -75.3619 182° South 277 319 11,300 1,350 Climbing FAA TRACON SMA TRACON (SMA)
Sun 11:16:17 AM 39.6028 -75.3644 185° South 313 360 11,600 1,350 Climbing FAA TRACON SMA TRACON (SMA)
Sun 11:16:37 AM 39.5725 -75.3647 180° South 322 371 12,200 1,650 Climbing FAA TRACON SMA TRACON (SMA)
Sun 11:16:57 AM 39.5361 -75.3661 182° South 340 391 12,700 1,171 Climbing FAA TRACON SMA TRACON (SMA)
Sun 11:17:18 AM 39.5050 -75.3678 182° South 365 420 13,000 1,500 Climbing FAA TRACON SMA TRACON (SMA)
Sun 11:17:37 AM 39.4714 -75.3692 182° South 387 445 13,700 2,308 Climbing FAA TRACON SMA TRACON (SMA)
Sun 11:17:57 AM 39.4300 -75.3706 181° South 384 442 14,500 2,250 Climbing FAA TRACON SMA TRACON (SMA)
Sun 11:18:17 AM 39.3967 -75.3722 182° South 390 449 15,200 2,100 Climbing FAA TRACON SMA TRACON (SMA)
Sun 11:18:37 AM 39.3631 -75.3739 182° South 392 451 15,900 2,250 Climbing FAA TRACON SMA TRACON (SMA)
Sun 11:18:57 AM 39.3214 -75.3753 181° South 396 456 16,700 1,650 Climbing FAA TRACON SMA TRACON (SMA)
Sun 11:19:17 AM 39.2856 -75.3767 182° South 401 461 17,000 450 Climbing FAA TRACON SMA TRACON (SMA)
Sun 11:19:37 AM 39.2503 -75.3783 182° South 409 471 17,000 526 Level FAA TRACON SMA TRACON (SMA)
Sun 11:21:11 AM 39.0778 -75.4017 186° South 417 480 18,000 1,045 Climbing Washington Center
Sun 11:22:12 AM 38.9611 -75.4181 186° South 427 491 19,700 1,700 Climbing Washington Center
Sun 11:23:11 AM 38.8422 -75.4369 187° South 427 491 21,400 1,563 Climbing Washington Center
Sun 11:24:11 AM 38.7194 -75.4558 187° South 438 504 22,800 1,350 Climbing Washington Center
Sun 11:25:11 AM 38.5900 -75.4747 187° South 448 516 24,100 1,200 Climbing Washington Center
Sun 11:26:11 AM 38.4628 -75.4936 187° South 463 533 25,200 1,200 Climbing Washington Center
Sun 11:27:11 AM 38.3336 -75.5228 190° South 469 540 26,500 1,537 Climbing Washington Center
Sun 11:28:12 AM 38.2231 -75.5944 207° Southwest 460 529 28,300 1,700 Climbing Washington Center
Sun 11:29:11 AM 38.1292 -75.7025 222° Southwest 446 513 29,900 1,714 Climbing Washington Center
Sun 11:30:11 AM 38.0250 -75.7972 216° Southwest 441 507 31,700 1,488 Climbing Washington Center
Sun 11:31:12 AM 37.9206 -75.8472 201° Southwest 433 498 32,900 1,200 Climbing Washington Center
Sun 11:32:11 AM 37.8058 -75.9044 202° Southwest 440 506 34,100 1,210 Climbing Washington Center
Sun 11:33:11 AM 37.6844 -75.9697 203° Southwest 440 506 35,300 1,041 Climbing Washington Center
Sun 11:34:12 AM 37.5739 -76.0242 201° Southwest 440 506 36,200 850 Climbing Washington Center
Sun 11:35:11 AM 37.4611 -76.0811 202° Southwest 440 506 37,000 756 Climbing Washington Center
Sun 11:36:11 AM 37.3481 -76.1353 201° Southwest 435 501 37,700 450 Climbing Washington Center
Sun 11:37:11 AM 37.2436 -76.1814 199° South 435 501 37,900 100 Climbing Washington Center
Sun 11:38:11 AM 37.1328 -76.2353 201° Southwest 435 501 37,900  Level Washington Center
Sun 11:39:11 AM 37.0219 -76.2892 201° Southwest 435 501 37,900  Level Washington Center
Sun 11:40:12 AM 36.9047 -76.3347 197° South 435 501 37,900  Level Washington Center
Sun 11:41:11 AM 36.7878 -76.3725 195° South 435 501 37,900  Level Washington Center
Sun 11:42:11 AM 36.6603 -76.4206 197° South 435 501 37,900  Level Washington Center
Sun 11:43:11 AM 36.5389 -76.4606 195° South 441 507 37,900  Level Washington Center
Sun 11:44:11 AM 36.4239 -76.4956 194° South 441 507 37,900  Level Washington Center
Sun 11:45:11 AM 36.3047 -76.5353 195° South 436 502 37,900  Level Washington Center
Sun 11:46:11 AM 36.1917 -76.5700 194° South 436 502 37,900  Level Washington Center
Sun 11:47:11 AM 36.0744 -76.6097 195° South 436 502 37,900  Level Washington Center
Sun 11:48:11 AM 35.9594 -76.6467 195° South 436 502 37,900  Level Washington Center
Sun 11:49:11 AM 35.8422 -76.6836 194° South 436 502 37,900  Level Washington Center
Sun 11:50:11 AM 35.7356 -76.7181 195° South 436 502 37,900  Level Washington Center
Sun 11:51:11 AM 35.6225 -76.7547 195° South 436 502 37,900  Level Washington Center
Sun 11:52:11 AM 35.5053 -76.7914 194° South 436 502 37,900  Level Washington Center
Sun 11:53:11 AM 35.3817 -76.8353 196° South 436 502 37,900  Level Washington Center
Sun 11:54:11 AM 35.2625 -76.8742 195° South 436 502 37,900  Level Washington Center
Sun 11:55:11 AM 35.1472 -76.9131 195° South 436 502 37,900  Level Washington Center
Sun 11:56:11 AM 35.0447 -76.9467 195° South 436 502 37,900  Level Washington Center
Sun 11:57:11 AM 34.9275 -76.9828 194° South 436 502 37,900  Level Washington Center
Sun 11:58:12 AM 34.8164 -77.0189 195° South 436 502 37,900  Level Washington Center
Sun 11:59:11 AM 34.6992 -77.0547 194° South 436 502 37,900  Level Washington Center
Sun 12:00:11 PM 34.5817 -77.0956 196° South 436 502 37,900  Level Washington Center
Sun 12:01:11 PM 34.4644 -77.1311 194° South 436 502 37,900  Level Washington Center
Sun 12:02:11 PM 34.3450 -77.1692 195° South 436 502 37,900  Level Washington Center
Sun 12:03:11 PM 34.2278 -77.2047 194° South 436 502 37,900  Level Washington Center
Sun 12:04:11 PM 34.1125 -77.2400 194° South 436 502 37,900  Level Washington Center
Sun 12:05:12 PM 33.9931 -77.2778 195° South 436 502 37,900  Level Washington Center
Sun 12:06:11 PM 33.8758 -77.3128 194° South 436 502 37,900  Level Washington Center
Sun 12:08:39 PM 33.5856 -77.4031 195° South 459 528 37,900  Level Jacksonville Center
Sun 12:09:39 PM 33.4642 -77.4403 194° South 449 517 37,900  Level Jacksonville Center
Sun 12:10:39 PM 33.3444 -77.4750 194° South 449 517 37,900  Level Jacksonville Center
Sun 12:11:39 PM 33.2272 -77.5119 195° South 449 517 37,900  Level Jacksonville Center
Sun 12:12:39 PM 33.1078 -77.5489 195° South 449 517 37,900  Level Jacksonville Center
Sun 12:13:40 PM 32.9903 -77.5831 194° South 444 511 37,900  Level Jacksonville Center
Sun 12:14:39 PM 32.8708 -77.6200 195° South 444 511 37,900  Level Jacksonville Center
Sun 12:15:39 PM 32.7556 -77.6589 196° South 444 511 37,900  Level Jacksonville Center
Sun 12:16:39 PM 32.6378 -77.6928 194° South 444 511 37,900  Level Jacksonville Center
Sun 12:17:39 PM 32.5222 -77.7239 193° South 439 505 37,900  Level Jacksonville Center
Sun 12:18:39 PM 32.4047 -77.7600 195° South 439 505 37,900  Level Jacksonville Center
Sun 12:19:39 PM 32.2875 -77.7986 196° South 439 505 37,900  Level Jacksonville Center
Sun 12:20:39 PM 32.1719 -77.8322 194° South 434 499 37,900  Level Jacksonville Center
Sun 12:21:39 PM 32.0564 -77.8653 194° South 429 494 37,900  Level Jacksonville Center
Sun 12:22:39 PM 31.9447 -77.8961 193° South 429 494 37,900  Level Jacksonville Center
Sun 12:23:39 PM 31.8314 -77.9289 194° South 429 494 37,900  Level Jacksonville Center
Sun 12:24:39 PM 31.7158 -77.9619 194° South 429 494 37,900  Level Jacksonville Center
Sun 12:25:39 PM 31.6022 -77.9975 195° South 429 494 37,900  Level Jacksonville Center
Sun 12:26:39 PM 31.4883 -78.0228 191° South 429 494 37,900  Level Jacksonville Center
Sun 12:27:39 PM 31.3750 -78.0556 194° South 429 494 37,900  Level Jacksonville Center
Sun 12:28:39 PM 31.2636 -78.0953 197° South 429 494 37,900  Level Jacksonville Center
Sun 12:29:39 PM 31.1500 -78.1278 194° South 429 494 37,900  Level Jacksonville Center
Sun 12:30:39 PM 31.0367 -78.1625 195° South 429 494 37,900  Level Jacksonville Center
Sun 12:31:39 PM 30.9131 -78.2075 197° South 429 494 37,900  Level Jacksonville Center
Sun 12:32:39 PM 30.7994 -78.2397 194° South 423 487 37,900  Level Jacksonville Center
Sun 12:33:39 PM 30.6839 -78.2744 194° South 429 494 37,900  Level Jacksonville Center
Sun 12:35:44 PM 30.4625 -78.3378 194° South 428 493 37,900  Level Miami Center
Sun 12:36:44 PM 30.3414 -78.3578 188° South 437 503 37,900  Level Miami Center
Sun 12:37:44 PM 30.2183 -78.3464 175° South 442 509 37,900  Level Miami Center
Sun 12:38:44 PM 30.0936 -78.3233 171° South 448 516 37,900  Level Miami Center
Sun 12:39:44 PM 29.9728 -78.3025 172° South 454 522 37,900  Level Miami Center
Sun 12:40:44 PM 29.8481 -78.2792 171° South 445 512 37,900  Level Miami Center
Sun 12:41:44 PM 29.7231 -78.2561 171° South 451 519 37,900  Level Miami Center
Sun 12:42:44 PM 29.5942 -78.2258 168° South 464 534 37,900  Level Miami Center
Sun 12:43:44 PM 29.4775 -78.2053 171° South 457 526 37,900  Level Miami Center
Sun 12:44:44 PM 29.3547 -78.1800 170° South 451 519 37,900  Level Miami Center
Sun 12:45:44 PM 29.2339 -78.1572 171° South 446 513 37,900 50 Level Miami Center
Sun 12:46:44 PM 29.1131 -78.1319 170° South 453 521 38,000  Climbing Miami Center
Sun 12:47:44 PM 28.9944 -78.1092 170° South 443 510 37,900 -50 Descending Miami Center
Sun 12:48:44 PM 28.8714 -78.0842 170° South 450 518 37,900  Level Miami Center
Sun 12:49:44 PM 28.7528 -78.0614 170° South 443 510 37,900 -450 Level Miami Center
Sun 12:50:44 PM 28.6358 -78.0414 171° South 438 504 37,000 -900 Descending Miami Center
Sun 12:51:44 PM 28.5192 -78.0189 170° South 438 504 36,100 -950 Descending Miami Center
Sun 12:52:44 PM 28.3983 -77.9939 170° South 433 498 35,100 -1,000 Descending Miami Center
Sun 12:53:44 PM 28.2794 -77.9717 171° South 433 498 34,100 -600 Descending Miami Center
Sun 12:54:44 PM 28.1525 -77.9467 170° South 445 512 33,900 -100 Descending Miami Center
Sun 12:55:44 PM 28.0272 -77.9267 172° South 458 527 33,900  Level Miami Center
Sun 12:56:44 PM 27.9042 -77.9019 170° South 458 527 33,900  Level Miami Center
Sun 12:57:44 PM 27.7750 -77.8797 171° South 458 527 33,900  Level Miami Center
Sun 12:58:44 PM 27.6561 -77.8553 170° South 458 527 33,900  Level Miami Center
Sun 12:59:44 PM 27.5350 -77.8331 171° South 453 521 33,900  Level Miami Center
Sun 01:00:44 PM 27.4036 -77.8064 170° South 446 513 33,900  Level Miami Center
Sun 01:01:44 PM 27.2931 -77.7844 170° South 448 516 33,900 50 Level Miami Center
Sun 01:02:44 PM 27.1617 -77.7600 171° South 443 510 34,000 -50 Climbing Miami Center
Sun 01:03:44 PM 27.0408 -77.7381 171° South 443 510 33,800 -600 Descending Miami Center
Sun 01:04:44 PM 26.9175 -77.7114 169° South 448 516 32,800 -1,000 Descending Miami Center
Sun 01:05:44 PM 26.7967 -77.6919 172° South 448 516 31,800 -1,000 Descending Miami Center
Sun 01:06:44 PM 26.6756 -77.6703 171° South 448 516 30,800 -1,000 Descending Miami Center
Sun 01:07:44 PM 26.5525 -77.6508 172° South 448 516 29,800 -1,500 Descending Miami Center
Sun 01:08:44 PM 26.4356 -77.6314 172° South 443 510 27,800 -2,150 Descending Miami Center
Sun 01:09:44 PM 26.3228 -77.6053 168° South 431 496 25,500 -2,300 Descending Miami Center
Sun 01:10:44 PM 26.2100 -77.5861 171° South 417 480 23,200 -2,300 Descending Miami Center
Sun 01:11:44 PM 26.1036 -77.5644 170° South 405 466 20,900 -2,300 Descending Miami Center
Sun 01:12:44 PM 26.0014 -77.5478 172° South 392 451 18,600 -2,950 Descending Miami Center
Sun 01:13:44 PM 25.9011 -77.5264 169° South 380 437 15,000 -2,450 Descending Miami Center
Sun 01:14:44 PM 25.8031 -77.5097 171° South 368 423 13,700 -1,000 Descending Miami Center
Sun 01:15:44 PM 25.7131 -77.4931 171° South 351 404 13,000 -350 Descending Miami Center
Sun 01:16:44 PM 25.6297 -77.4833 174° South 327 376 13,000  Level Miami Center
Sun 01:18:00 PM 25.4789 -77.4693 175° South  Level FlightAware Approximate
Sun 01:25:00 PM 25.0333 -77.4500 170° South  Level FlightAware Approximate
Sun 01:26:00 PM 25.0390 -77.4662 170° South  Level Estimated

Login

Don't have an account? Register now (free) for customized features, flight alerts, and more!